sensor_id;sensor_type;location;lat;lon;timestamp;pressure;altitude;pressure_sealevel;temperature;humidity
8047;BME280;67150;42.516;23.358;2023-04-24T00:02:11;88213.38;;;9.62;63.19
8047;BME280;67150;42.516;23.358;2023-04-24T00:04:39;88219.00;;;9.65;63.45
8047;BME280;67150;42.516;23.358;2023-04-24T00:07:07;88213.97;;;9.65;63.39
8047;BME280;67150;42.516;23.358;2023-04-24T00:09:34;88208.94;;;9.65;63.17
8047;BME280;67150;42.516;23.358;2023-04-24T00:12:01;88219.69;;;9.67;63.39
8047;BME280;67150;42.516;23.358;2023-04-24T00:14:30;88223.00;;;9.68;63.34
8047;BME280;67150;42.516;23.358;2023-04-24T00:16:57;88224.72;;;9.67;63.60
8047;BME280;67150;42.516;23.358;2023-04-24T00:19:26;88218.06;;;9.66;63.58
8047;BME280;67150;42.516;23.358;2023-04-24T00:21:53;88215.78;;;9.63;63.39
8047;BME280;67150;42.516;23.358;2023-04-24T00:24:20;88225.50;;;9.68;63.53
8047;BME280;67150;42.516;23.358;2023-04-24T00:26:48;88218.66;;;9.70;63.00
8047;BME280;67150;42.516;23.358;2023-04-24T00:29:15;88218.88;;;9.67;63.21
8047;BME280;67150;42.516;23.358;2023-04-24T00:31:42;88213.03;;;9.66;63.39
8047;BME280;67150;42.516;23.358;2023-04-24T00:34:10;88202.97;;;9.66;63.19
8047;BME280;67150;42.516;23.358;2023-04-24T00:36:39;88196.34;;;9.65;63.20
8047;BME280;67150;42.516;23.358;2023-04-24T00:39:07;88190.53;;;9.65;63.66
8047;BME280;67150;42.516;23.358;2023-04-24T00:41:35;88182.63;;;9.58;63.27
8047;BME280;67150;42.516;23.358;2023-04-24T00:44:02;88181.50;;;9.62;63.73
8047;BME280;67150;42.516;23.358;2023-04-24T00:46:30;88177.38;;;9.61;63.53
8047;BME280;67150;42.516;23.358;2023-04-24T00:48:59;88174.03;;;9.61;63.44
8047;BME280;67150;42.516;23.358;2023-04-24T00:51:29;88170.72;;;9.60;63.66
8047;BME280;67150;42.516;23.358;2023-04-24T00:54:00;88168.22;;;9.60;63.86
8047;BME280;67150;42.516;23.358;2023-04-24T00:56:27;88155.09;;;9.68;63.19
8047;BME280;67150;42.516;23.358;2023-04-24T00:58:55;88161.59;;;9.59;63.56
8047;BME280;67150;42.516;23.358;2023-04-24T01:01:22;88162.50;;;9.58;63.60
8047;BME280;67150;42.516;23.358;2023-04-24T01:03:51;88167.53;;;9.58;63.55
8047;BME280;67150;42.516;23.358;2023-04-24T01:06:20;88174.28;;;9.57;63.55
8047;BME280;67150;42.516;23.358;2023-04-24T01:08:48;88170.03;;;9.58;63.66
8047;BME280;67150;42.516;23.358;2023-04-24T01:11:18;88177.59;;;9.58;63.77
8047;BME280;67150;42.516;23.358;2023-04-24T01:13:46;88184.22;;;9.59;63.77
8047;BME280;67150;42.516;23.358;2023-04-24T01:16:14;88180.91;;;9.58;63.81
8047;BME280;67150;42.516;23.358;2023-04-24T01:18:43;88177.50;;;9.60;63.87
8047;BME280;67150;42.516;23.358;2023-04-24T01:21:12;88188.34;;;9.60;63.91
8047;BME280;67150;42.516;23.358;2023-04-24T01:23:42;88186.75;;;9.59;63.87
8047;BME280;67150;42.516;23.358;2023-04-24T01:26:09;88187.56;;;9.60;63.92
8047;BME280;67150;42.516;23.358;2023-04-24T01:28:37;88194.06;;;9.62;63.94
8047;BME280;67150;42.516;23.358;2023-04-24T01:31:04;88184.91;;;9.61;63.94
8047;BME280;67150;42.516;23.358;2023-04-24T01:33:33;88185.72;;;9.62;63.63
8047;BME280;67150;42.516;23.358;2023-04-24T01:36:00;88184.09;;;9.61;63.85
8047;BME280;67150;42.516;23.358;2023-04-24T01:38:28;88185.72;;;9.62;63.79
8047;BME280;67150;42.516;23.358;2023-04-24T01:40:57;88201.63;;;9.62;63.83
8047;BME280;67150;42.516;23.358;2023-04-24T01:43:24;88196.69;;;9.61;63.86
8047;BME280;67150;42.516;23.358;2023-04-24T01:45:55;88200.00;;;9.61;63.89
8047;BME280;67150;42.516;23.358;2023-04-24T01:48:22;88191.56;;;9.62;63.87
8047;BME280;67150;42.516;23.358;2023-04-24T01:50:49;88194.97;;;9.61;63.91
8047;BME280;67150;42.516;23.358;2023-04-24T01:53:17;88177.28;;;9.63;63.73
8047;BME280;67150;42.516;23.358;2023-04-24T01:55:44;88173.25;;;9.60;63.72
8047;BME280;67150;42.516;23.358;2023-04-24T01:58:13;88168.78;;;9.64;63.83
8047;BME280;67150;42.516;23.358;2023-04-24T02:00:40;88157.25;;;9.61;63.81
8047;BME280;67150;42.516;23.358;2023-04-24T02:03:07;88148.09;;;9.60;63.67
8047;BME280;67150;42.516;23.358;2023-04-24T02:05:35;88149.69;;;9.61;63.92
8047;BME280;67150;42.516;23.358;2023-04-24T02:08:02;88138.03;;;9.60;63.88
8047;BME280;67150;42.516;23.358;2023-04-24T02:10:29;88139.78;;;9.60;63.75
8047;BME280;67150;42.516;23.358;2023-04-24T02:12:56;88123.16;;;9.57;63.89
8047;BME280;67150;42.516;23.358;2023-04-24T02:15:26;88125.00;;;9.55;64.13
8047;BME280;67150;42.516;23.358;2023-04-24T02:17:55;88117.59;;;9.53;64.04
8047;BME280;67150;42.516;23.358;2023-04-24T02:20:22;88120.09;;;9.53;63.98
8047;BME280;67150;42.516;23.358;2023-04-24T02:22:49;88119.97;;;9.55;64.16
8047;BME280;67150;42.516;23.358;2023-04-24T02:25:16;88116.56;;;9.56;64.01
8047;BME280;67150;42.516;23.358;2023-04-24T02:27:44;88114.13;;;9.54;64.27
8047;BME280;67150;42.516;23.358;2023-04-24T02:30:11;88114.94;;;9.55;64.12
8047;BME280;67150;42.516;23.358;2023-04-24T02:32:40;88102.28;;;9.56;64.33
8047;BME280;67150;42.516;23.358;2023-04-24T02:35:08;88108.06;;;9.57;64.18
8047;BME280;67150;42.516;23.358;2023-04-24T02:37:36;88097.25;;;9.56;64.26
8047;BME280;67150;42.516;23.358;2023-04-24T02:40:04;88094.03;;;9.54;64.08
8047;BME280;67150;42.516;23.358;2023-04-24T02:42:31;88096.44;;;9.56;64.11
8047;BME280;67150;42.516;23.358;2023-04-24T02:44:59;88100.66;;;9.55;64.24
8047;BME280;67150;42.516;23.358;2023-04-24T02:47:26;88097.34;;;9.55;64.22
8047;BME280;67150;42.516;23.358;2023-04-24T02:49:55;88103.19;;;9.55;64.29
8047;BME280;67150;42.516;23.358;2023-04-24T02:52:22;88104.78;;;9.56;63.94
8047;BME280;67150;42.516;23.358;2023-04-24T02:54:49;88100.66;;;9.55;64.19
8047;BME280;67150;42.516;23.358;2023-04-24T02:57:17;88099.06;;;9.54;64.27
8047;BME280;67150;42.516;23.358;2023-04-24T02:59:44;88099.06;;;9.54;63.88
8047;BME280;67150;42.516;23.358;2023-04-24T03:02:11;88093.22;;;9.54;63.94
8047;BME280;67150;42.516;23.358;2023-04-24T03:04:39;88098.25;;;9.54;64.20
8047;BME280;67150;42.516;23.358;2023-04-24T03:07:09;88094.25;;;9.51;63.86
8047;BME280;67150;42.516;23.358;2023-04-24T03:09:37;88097.56;;;9.52;63.95
8047;BME280;67150;42.516;23.358;2023-04-24T03:12:05;88093.47;;;9.51;64.21
8047;BME280;67150;42.516;23.358;2023-04-24T03:14:32;88095.06;;;9.52;64.12
8047;BME280;67150;42.516;23.358;2023-04-24T03:17:00;88090.25;;;9.49;64.18
8047;BME280;67150;42.516;23.358;2023-04-24T03:19:27;88082.84;;;9.47;64.00
8047;BME280;67150;42.516;23.358;2023-04-24T03:21:55;88086.84;;;9.50;64.04
8047;BME280;67150;42.516;23.358;2023-04-24T03:24:23;88087.06;;;9.47;64.21
8047;BME280;67150;42.516;23.358;2023-04-24T03:26:53;88093.72;;;9.48;64.10
8047;BME280;67150;42.516;23.358;2023-04-24T03:29:21;88091.28;;;9.46;64.14
8047;BME280;67150;42.516;23.358;2023-04-24T03:31:49;88092.09;;;9.47;64.10
8047;BME280;67150;42.516;23.358;2023-04-24T03:34:16;88087.16;;;9.45;64.12
8047;BME280;67150;42.516;23.358;2023-04-24T03:36:43;88092.09;;;9.47;64.25
8047;BME280;67150;42.516;23.358;2023-04-24T03:39:13;88087.06;;;9.47;64.29
8047;BME280;67150;42.516;23.358;2023-04-24T03:41:41;88088.69;;;9.48;64.07
8047;BME280;67150;42.516;23.358;2023-04-24T03:44:09;88093.72;;;9.48;63.99
8047;BME280;67150;42.516;23.358;2023-04-24T03:46:36;88093.56;;;9.49;64.10
8047;BME280;67150;42.516;23.358;2023-04-24T03:49:03;88095.41;;;9.47;64.00
8047;BME280;67150;42.516;23.358;2023-04-24T03:51:30;88099.50;;;9.48;63.90
8047;BME280;67150;42.516;23.358;2023-04-24T03:53:58;88104.53;;;9.48;63.93
8047;BME280;67150;42.516;23.358;2023-04-24T03:56:25;88102.81;;;9.49;64.00
8047;BME280;67150;42.516;23.358;2023-04-24T03:58:54;88099.41;;;9.50;63.93
8047;BME280;67150;42.516;23.358;2023-04-24T04:01:21;88104.88;;;9.55;63.52
8047;BME280;67150;42.516;23.358;2023-04-24T04:03:49;88100.75;;;9.54;63.62
8047;BME280;67150;42.516;23.358;2023-04-24T04:06:17;88093.22;;;9.54;63.68
8047;BME280;67150;42.516;23.358;2023-04-24T04:08:45;88097.78;;;9.49;63.73
8047;BME280;67150;42.516;23.358;2023-04-24T04:11:12;88091.06;;;9.49;63.67
8047;BME280;67150;42.516;23.358;2023-04-24T04:13:39;88097.78;;;9.49;63.94
8047;BME280;67150;42.516;23.358;2023-04-24T04:16:08;88094.59;;;9.47;63.83
8047;BME280;67150;42.516;23.358;2023-04-24T04:18:36;88099.50;;;9.48;63.76
8047;BME280;67150;42.516;23.358;2023-04-24T04:21:03;88101.69;;;9.53;63.61
8047;BME280;67150;42.516;23.358;2023-04-24T04:23:31;88111.97;;;9.50;63.66
8047;BME280;67150;42.516;23.358;2023-04-24T04:25:58;88109.25;;;9.53;63.41
8047;BME280;67150;42.516;23.358;2023-04-24T04:28:25;88113.69;;;9.61;63.24
8047;BME280;67150;42.516;23.358;2023-04-24T04:30:53;88114.28;;;9.53;63.62
8047;BME280;67150;42.516;23.358;2023-04-24T04:33:22;88114.94;;;9.55;63.55
8047;BME280;67150;42.516;23.358;2023-04-24T04:35:50;88119.53;;;9.50;63.41
8047;BME280;67150;42.516;23.358;2023-04-24T04:38:18;88128.91;;;9.48;63.91
8047;BME280;67150;42.516;23.358;2023-04-24T04:40:46;88126.25;;;9.49;63.81
8047;BME280;67150;42.516;23.358;2023-04-24T04:43:13;88122.94;;;9.60;63.37
8047;BME280;67150;42.516;23.358;2023-04-24T04:45:41;88122.16;;;9.60;63.34
8047;BME280;67150;42.516;23.358;2023-04-24T04:48:09;88111.75;;;9.53;63.76
8047;BME280;67150;42.516;23.358;2023-04-24T04:50:40;88127.66;;;9.53;63.76
8047;BME280;67150;42.516;23.358;2023-04-24T04:53:07;88109.00;;;9.56;63.38
8047;BME280;67150;42.516;23.358;2023-04-24T04:55:35;88101.03;;;9.51;63.68
8047;BME280;67150;42.516;23.358;2023-04-24T04:58:14;88109.56;;;9.48;63.58
8047;BME280;67150;42.516;23.358;2023-04-24T05:00:42;88113.00;;;9.47;63.81
8047;BME280;67150;42.516;23.358;2023-04-24T05:03:09;88108.56;;;9.51;63.92
8047;BME280;67150;42.516;23.358;2023-04-24T05:05:37;88114.50;;;9.50;63.64
8047;BME280;67150;42.516;23.358;2023-04-24T05:08:07;88127.97;;;9.49;63.79
8047;BME280;67150;42.516;23.358;2023-04-24T05:10:35;88135.50;;;9.49;63.64
8047;BME280;67150;42.516;23.358;2023-04-24T05:13:02;88130.25;;;9.52;63.47
8047;BME280;67150;42.516;23.358;2023-04-24T05:15:30;88138.03;;;9.49;64.00
8047;BME280;67150;42.516;23.358;2023-04-24T05:18:00;88128.91;;;9.48;63.77
8047;BME280;67150;42.516;23.358;2023-04-24T05:20:27;88127.06;;;9.50;63.91
8047;BME280;67150;42.516;23.358;2023-04-24T05:22:55;88130.25;;;9.52;63.76
8047;BME280;67150;42.516;23.358;2023-04-24T05:25:23;88135.41;;;9.50;63.91
8047;BME280;67150;42.516;23.358;2023-04-24T05:28:09;88127.06;;;9.50;63.83
8047;BME280;67150;42.516;23.358;2023-04-24T05:30:55;88135.50;;;9.49;63.57
8047;BME280;67150;42.516;23.358;2023-04-24T05:33:40;88135.50;;;9.49;63.96
8047;BME280;67150;42.516;23.358;2023-04-24T05:36:26;88136.31;;;9.49;63.69
8047;BME280;67150;42.516;23.358;2023-04-24T05:39:13;88136.22;;;9.51;63.65
8047;BME280;67150;42.516;23.358;2023-04-24T05:42:00;88139.75;;;9.48;63.75
8047;BME280;67150;42.516;23.358;2023-04-24T05:44:47;88143.28;;;9.57;63.67
8047;BME280;67150;42.516;23.358;2023-04-24T05:47:32;88145.56;;;9.49;63.71
8047;BME280;67150;42.516;23.358;2023-04-24T05:50:18;88145.56;;;9.49;63.66
8047;BME280;67150;42.516;23.358;2023-04-24T05:53:04;88148.78;;;9.51;63.53
8047;BME280;67150;42.516;23.358;2023-04-24T05:55:51;88149.69;;;9.50;63.83
8047;BME280;67150;42.516;23.358;2023-04-24T05:58:38;88132.91;;;9.50;63.78
8047;BME280;67150;42.516;23.358;2023-04-24T06:01:25;88133.94;;;9.48;63.65
8047;BME280;67150;42.516;23.358;2023-04-24T06:04:12;88135.50;;;9.49;64.03
8047;BME280;67150;42.516;23.358;2023-04-24T06:06:58;88135.28;;;9.52;63.78
8047;BME280;67150;42.516;23.358;2023-04-24T06:09:44;88148.78;;;9.51;63.95
8047;BME280;67150;42.516;23.358;2023-04-24T06:12:30;88143.78;;;9.51;64.05
8047;BME280;67150;42.516;23.358;2023-04-24T06:15:17;88141.13;;;9.52;63.89
8047;BME280;67150;42.516;23.358;2023-04-24T06:18:03;88146.72;;;9.56;63.97
8047;BME280;67150;42.516;23.358;2023-04-24T06:20:48;88146.97;;;9.53;63.87
8047;BME280;67150;42.516;23.358;2023-04-24T06:23:34;88139.88;;;9.58;63.73
8047;BME280;67150;42.516;23.358;2023-04-24T06:26:20;88149.13;;;9.57;64.16
8047;BME280;67150;42.516;23.358;2023-04-24T06:29:06;88145.03;;;9.56;63.81
8047;BME280;67150;42.516;23.358;2023-04-24T06:31:54;88151.53;;;9.59;64.12
8047;BME280;67150;42.516;23.358;2023-04-24T06:34:21;88153.13;;;9.60;63.86
8047;BME280;67150;42.516;23.358;2023-04-24T06:36:48;88149.91;;;9.69;63.71
8047;BME280;67150;42.516;23.358;2023-04-24T06:39:16;88150.63;;;9.71;63.59
8047;BME280;67150;42.516;23.358;2023-04-24T06:41:43;88159.53;;;9.64;63.97
8047;BME280;67150;42.516;23.358;2023-04-24T06:44:10;88152.91;;;9.63;63.80
8047;BME280;67150;42.516;23.358;2023-04-24T06:46:37;88156.44;;;9.72;63.84
8047;BME280;67150;42.516;23.358;2023-04-24T06:49:06;88145.81;;;9.68;64.06
8047;BME280;67150;42.516;23.358;2023-04-24T06:51:33;88153.38;;;9.68;64.06
8047;BME280;67150;42.516;23.358;2023-04-24T06:54:01;88160.56;;;9.73;64.07
8047;BME280;67150;42.516;23.358;2023-04-24T06:56:28;88154.63;;;9.74;64.12
8047;BME280;67150;42.516;23.358;2023-04-24T06:58:56;88156.56;;;9.70;64.19
8047;BME280;67150;42.516;23.358;2023-04-24T07:01:23;88150.72;;;9.70;63.79
8047;BME280;67150;42.516;23.358;2023-04-24T07:03:50;88158.28;;;9.70;63.92
8047;BME280;67150;42.516;23.358;2023-04-24T07:06:19;88163.22;;;9.71;64.07
8047;BME280;67150;42.516;23.358;2023-04-24T07:08:48;88168.56;;;9.67;64.06
8047;BME280;67150;42.516;23.358;2023-04-24T07:11:15;88168.56;;;9.67;63.79
8047;BME280;67150;42.516;23.358;2023-04-24T07:13:43;88170.28;;;9.66;64.13
8047;BME280;67150;42.516;23.358;2023-04-24T07:16:10;88173.72;;;9.65;63.98
8047;BME280;67150;42.516;23.358;2023-04-24T07:18:38;88173.25;;;9.60;64.23
8047;BME280;67150;42.516;23.358;2023-04-24T07:21:05;88177.03;;;9.66;64.03
8047;BME280;67150;42.516;23.358;2023-04-24T07:23:34;88179.44;;;9.67;64.04
8047;BME280;67150;42.516;23.358;2023-04-24T07:26:01;88179.44;;;9.67;64.15
8047;BME280;67150;42.516;23.358;2023-04-24T07:28:28;88172.00;;;9.66;63.96
8047;BME280;67150;42.516;23.358;2023-04-24T07:30:57;88166.97;;;9.66;64.52
8047;BME280;67150;42.516;23.358;2023-04-24T07:33:25;88152.91;;;9.63;64.16
8047;BME280;67150;42.516;23.358;2023-04-24T07:35:52;88157.47;;;9.69;64.25
8047;BME280;67150;42.516;23.358;2023-04-24T07:38:20;88157.16;;;9.74;64.25
8047;BME280;67150;42.516;23.358;2023-04-24T07:40:49;88162.03;;;9.75;64.31
8047;BME280;67150;42.516;23.358;2023-04-24T07:43:16;88151.19;;;9.75;64.31
8047;BME280;67150;42.516;23.358;2023-04-24T07:45:44;88145.59;;;9.82;64.12
8047;BME280;67150;42.516;23.358;2023-04-24T07:48:11;88146.84;;;9.77;64.58
8047;BME280;67150;42.516;23.358;2023-04-24T07:50:40;88138.38;;;9.78;64.89
8047;BME280;67150;42.516;23.358;2023-04-24T07:53:07;88138.50;;;9.76;65.13
8047;BME280;67150;42.516;23.358;2023-04-24T07:55:35;88138.28;;;9.79;65.22
8047;BME280;67150;42.516;23.358;2023-04-24T07:58:04;88144.91;;;9.69;65.77
8047;BME280;67150;42.516;23.358;2023-04-24T08:00:31;88149.47;;;9.75;65.40
8047;BME280;67150;42.516;23.358;2023-04-24T08:02:58;88145.91;;;9.78;65.34
8047;BME280;67150;42.516;23.358;2023-04-24T08:05:26;88139.97;;;9.79;65.36
8047;BME280;67150;42.516;23.358;2023-04-24T08:07:54;88122.81;;;9.84;65.51
8047;BME280;67150;42.516;23.358;2023-04-24T08:10:21;88123.19;;;9.79;65.46
8047;BME280;67150;42.516;23.358;2023-04-24T08:12:49;88136.53;;;9.91;65.25
8047;BME280;67150;42.516;23.358;2023-04-24T08:15:18;88133.91;;;9.92;64.89
8047;BME280;67150;42.516;23.358;2023-04-24T08:17:45;88143.19;;;9.92;65.30
8047;BME280;67150;42.516;23.358;2023-04-24T08:20:13;88138.50;;;9.87;65.31
8047;BME280;67150;42.516;23.358;2023-04-24T08:22:40;88135.97;;;9.98;64.87
8047;BME280;67150;42.516;23.358;2023-04-24T08:25:08;88133.66;;;9.95;64.75
8047;BME280;67150;42.516;23.358;2023-04-24T08:27:51;88133.66;;;9.95;64.73
8047;BME280;67150;42.516;23.358;2023-04-24T08:30:20;88137.13;;;9.94;64.55
8047;BME280;67150;42.516;23.358;2023-04-24T08:32:47;88134.81;;;10.02;64.63
8047;BME280;67150;42.516;23.358;2023-04-24T08:35:15;88140.31;;;9.96;64.70
8047;BME280;67150;42.516;23.358;2023-04-24T08:37:42;88134.81;;;10.02;64.53
8047;BME280;67150;42.516;23.358;2023-04-24T08:40:13;88134.94;;;10.01;64.33
8047;BME280;67150;42.516;23.358;2023-04-24T08:42:41;88126.13;;;10.06;64.17
8047;BME280;67150;42.516;23.358;2023-04-24T08:45:10;88124.06;;;10.11;64.25
8047;BME280;67150;42.516;23.358;2023-04-24T08:47:40;88137.78;;;10.07;64.28
8047;BME280;67150;42.516;23.358;2023-04-24T08:50:08;88123.47;;;10.08;64.43
8047;BME280;67150;42.516;23.358;2023-04-24T08:52:36;88123.13;;;10.01;64.42
8047;BME280;67150;42.516;23.358;2023-04-24T08:55:04;88131.03;;;10.08;64.25
8047;BME280;67150;42.516;23.358;2023-04-24T08:57:32;88118.09;;;10.01;64.58
8047;BME280;67150;42.516;23.358;2023-04-24T09:00:02;88117.31;;;10.12;64.14
8047;BME280;67150;42.516;23.358;2023-04-24T09:02:30;88122.94;;;10.16;64.11
8047;BME280;67150;42.516;23.358;2023-04-24T09:05:01;88110.09;;;10.19;63.98
8047;BME280;67150;42.516;23.358;2023-04-24T09:07:30;88116.72;;;10.08;64.27
8047;BME280;67150;42.516;23.358;2023-04-24T09:09:59;88119.13;;;10.10;64.17
8047;BME280;67150;42.516;23.358;2023-04-24T09:12:28;88121.53;;;10.11;63.87
8047;BME280;67150;42.516;23.358;2023-04-24T09:14:56;88103.47;;;10.18;63.67
8047;BME280;67150;42.516;23.358;2023-04-24T09:17:24;88110.34;;;10.16;63.96
8047;BME280;67150;42.516;23.358;2023-04-24T09:19:52;88112.50;;;10.20;63.70
8047;BME280;67150;42.516;23.358;2023-04-24T09:22:21;88119.69;;;10.25;63.50
8047;BME280;67150;42.516;23.358;2023-04-24T09:25:01;88110.78;;;10.21;63.33
8047;BME280;67150;42.516;23.358;2023-04-24T09:27:29;88112.38;;;10.22;63.66
8047;BME280;67150;42.516;23.358;2023-04-24T09:29:57;88103.72;;;10.15;63.61
8047;BME280;67150;42.516;23.358;2023-04-24T09:32:25;88109.19;;;10.20;63.71
8047;BME280;67150;42.516;23.358;2023-04-24T09:35:08;88108.03;;;10.24;63.46
8047;BME280;67150;42.516;23.358;2023-04-24T09:37:38;88092.13;;;10.23;63.26
8047;BME280;67150;42.516;23.358;2023-04-24T09:40:12;88105.97;;;10.29;63.36
8047;BME280;67150;42.516;23.358;2023-04-24T09:42:39;88105.72;;;10.32;63.60
8047;BME280;67150;42.516;23.358;2023-04-24T09:45:10;88098.78;;;10.24;63.69
8047;BME280;67150;42.516;23.358;2023-04-24T09:47:38;88094.97;;;10.30;63.15
8047;BME280;67150;42.516;23.358;2023-04-24T09:50:10;88100.00;;;10.30;63.33
8047;BME280;67150;42.516;23.358;2023-04-24T09:52:42;88100.00;;;10.30;63.26
8047;BME280;67150;42.516;23.358;2023-04-24T09:55:15;88093.03;;;10.33;62.89
8047;BME280;67150;42.516;23.358;2023-04-24T09:57:48;88090.13;;;10.38;62.99
8047;BME280;67150;42.516;23.358;2023-04-24T10:00:22;88088.78;;;10.34;63.12
8047;BME280;67150;42.516;23.358;2023-04-24T10:02:50;88078.47;;;10.37;62.85
8047;BME280;67150;42.516;23.358;2023-04-24T10:05:19;88085.25;;;10.57;62.36
8047;BME280;67150;42.516;23.358;2023-04-24T10:07:51;88078.63;;;10.56;61.93
8047;BME280;67150;42.516;23.358;2023-04-24T10:10:18;88080.91;;;10.59;61.72
8047;BME280;67150;42.516;23.358;2023-04-24T10:12:46;88089.28;;;10.59;61.42
8047;BME280;67150;42.516;23.358;2023-04-24T10:15:14;88073.34;;;10.59;61.58
8047;BME280;67150;42.516;23.358;2023-04-24T10:17:47;88073.84;;;10.53;61.99
8047;BME280;67150;42.516;23.358;2023-04-24T10:20:21;88069.97;;;10.69;58.85
8047;BME280;67150;42.516;23.358;2023-04-24T10:22:52;88074.84;;;10.82;58.53
8047;BME280;67150;42.516;23.358;2023-04-24T10:25:20;88070.03;;;11.20;58.10
8047;BME280;67150;42.516;23.358;2023-04-24T10:27:48;88066.25;;;11.66;56.55
8047;BME280;67150;42.516;23.358;2023-04-24T10:30:16;88062.28;;;12.03;56.07
8047;BME280;67150;42.516;23.358;2023-04-24T10:32:44;88059.84;;;12.42;55.83
8047;BME280;67150;42.516;23.358;2023-04-24T10:35:12;88062.78;;;12.56;57.18
8047;BME280;67150;42.516;23.358;2023-04-24T10:37:44;88057.72;;;12.85;58.36
8047;BME280;67150;42.516;23.358;2023-04-24T10:40:18;88056.75;;;12.57;57.40
8047;BME280;67150;42.516;23.358;2023-04-24T10:42:47;88061.16;;;12.74;58.97
8047;BME280;67150;42.516;23.358;2023-04-24T10:45:18;88062.47;;;13.07;61.50
8047;BME280;67150;42.516;23.358;2023-04-24T10:48:06;88065.38;;;13.31;61.61
8047;BME280;67150;42.516;23.358;2023-04-24T10:50:43;88059.03;;;13.18;60.89
8047;BME280;67150;42.516;23.358;2023-04-24T10:53:16;88064.63;;;12.73;58.96
8047;BME280;67150;42.516;23.358;2023-04-24T10:55:47;88064.72;;;12.33;58.34
8047;BME280;67150;42.516;23.358;2023-04-24T10:58:22;88072.78;;;12.08;58.72
8047;BME280;67150;42.516;23.358;2023-04-24T11:00:56;88063.97;;;11.93;59.65
8047;BME280;67150;42.516;23.358;2023-04-24T11:03:25;88051.75;;;11.89;59.97
8047;BME280;67150;42.516;23.358;2023-04-24T11:06:05;88050.00;;;11.79;59.67
8047;BME280;67150;42.516;23.358;2023-04-24T11:08:38;88046.53;;;11.71;59.93
8047;BME280;67150;42.516;23.358;2023-04-24T11:11:12;88057.75;;;11.67;60.09
8047;BME280;67150;42.516;23.358;2023-04-24T11:14:05;88053.22;;;11.61;59.58
8047;BME280;67150;42.516;23.358;2023-04-24T11:16:39;88051.88;;;11.57;59.55
8047;BME280;67150;42.516;23.358;2023-04-24T11:19:20;88058.13;;;11.53;59.74
8047;BME280;67150;42.516;23.358;2023-04-24T11:21:55;88052.50;;;11.49;59.81
8047;BME280;67150;42.516;23.358;2023-04-24T11:24:27;88050.09;;;11.48;60.41
8047;BME280;67150;42.516;23.358;2023-04-24T11:26:59;88054.22;;;11.49;59.96
8047;BME280;67150;42.516;23.358;2023-04-24T11:29:46;88050.66;;;11.51;60.25
8047;BME280;67150;42.516;23.358;2023-04-24T11:32:18;88055.28;;;11.46;59.74
8047;BME280;67150;42.516;23.358;2023-04-24T11:34:47;88061.38;;;11.44;59.87
8047;BME280;67150;42.516;23.358;2023-04-24T11:37:15;88064.50;;;11.27;60.11
8047;BME280;67150;42.516;23.358;2023-04-24T11:43:21;88068.19;;;11.83;68.22
8047;BME280;67150;42.516;23.358;2023-04-24T11:45:49;88062.50;;;12.69;72.31
8047;BME280;67150;42.516;23.358;2023-04-24T11:48:19;88055.84;;;12.87;70.29
8047;BME280;67150;42.516;23.358;2023-04-24T11:50:47;88037.75;;;12.44;67.10
8047;BME280;67150;42.516;23.358;2023-04-24T11:53:14;88050.75;;;12.20;65.77
8047;BME280;67150;42.516;23.358;2023-04-24T11:55:41;88041.25;;;11.93;65.21
8047;BME280;67150;42.516;23.358;2023-04-24T11:58:08;88042.69;;;11.86;64.90
8047;BME280;67150;42.516;23.358;2023-04-24T12:00:37;88035.94;;;11.77;64.91
8047;BME280;67150;42.516;23.358;2023-04-24T12:03:06;88034.81;;;11.70;64.94
8047;BME280;67150;42.516;23.358;2023-04-24T12:05:33;88030.91;;;11.66;64.82
8047;BME280;67150;42.516;23.358;2023-04-24T12:08:01;88023.09;;;11.59;65.04
8047;BME280;67150;42.516;23.358;2023-04-24T12:10:30;88021.59;;;11.57;65.09
8047;BME280;67150;42.516;23.358;2023-04-24T12:12:58;88011.75;;;11.54;65.14
8047;BME280;67150;42.516;23.358;2023-04-24T12:15:26;88001.84;;;12.40;71.94
8047;BME280;67150;42.516;23.358;2023-04-24T12:17:56;87999.56;;;12.08;69.63
8047;BME280;67150;42.516;23.358;2023-04-24T12:20:24;88002.19;;;11.88;68.14
8047;BME280;67150;42.516;23.358;2023-04-24T12:22:53;87999.25;;;11.73;67.48
8047;BME280;67150;42.516;23.358;2023-04-24T12:25:23;88003.00;;;11.88;66.98
8047;BME280;67150;42.516;23.358;2023-04-24T12:27:53;88000.34;;;13.51;68.69
8047;BME280;67150;42.516;23.358;2023-04-24T12:30:21;87988.31;;;14.52;65.57
8047;BME280;67150;42.516;23.358;2023-04-24T12:32:49;87986.53;;;15.32;62.96
8047;BME280;67150;42.516;23.358;2023-04-24T12:35:21;87982.31;;;16.08;60.93
8047;BME280;67150;42.516;23.358;2023-04-24T12:37:49;87990.56;;;16.60;59.81
8047;BME280;67150;42.516;23.358;2023-04-24T12:40:17;87966.44;;;16.96;58.45
8047;BME280;67150;42.516;23.358;2023-04-24T12:42:46;87996.13;;;17.52;57.81
8047;BME280;67150;42.516;23.358;2023-04-24T12:45:16;87983.19;;;17.86;56.79
8047;BME280;67150;42.516;23.358;2023-04-24T12:47:44;87971.78;;;18.13;55.86
8047;BME280;67150;42.516;23.358;2023-04-24T12:50:12;87963.69;;;18.40;55.44
8047;BME280;67150;42.516;23.358;2023-04-24T12:52:42;87952.78;;;18.54;55.16
8047;BME280;67150;42.516;23.358;2023-04-24T12:55:10;87951.03;;;18.77;54.56
8047;BME280;67150;42.516;23.358;2023-04-24T12:57:38;87942.63;;;18.91;54.15
8047;BME280;67150;42.516;23.358;2023-04-24T13:00:08;87941.25;;;19.03;53.94
8047;BME280;67150;42.516;23.358;2023-04-24T13:02:35;87933.06;;;19.08;53.77
8047;BME280;67150;42.516;23.358;2023-04-24T13:05:03;87923.66;;;19.09;53.65
8047;BME280;67150;42.516;23.358;2023-04-24T13:07:31;87919.34;;;19.09;53.35
8047;BME280;67150;42.516;23.358;2023-04-24T13:09:59;87911.75;;;19.01;53.24
8047;BME280;67150;42.516;23.358;2023-04-24T13:12:27;87907.97;;;18.97;53.34
8047;BME280;67150;42.516;23.358;2023-04-24T13:14:54;87898.84;;;18.80;53.40
8047;BME280;67150;42.516;23.358;2023-04-24T13:17:21;87883.50;;;18.65;53.27
8047;BME280;67150;42.516;23.358;2023-04-24T13:19:50;87893.19;;;18.70;53.43
8047;BME280;67150;42.516;23.358;2023-04-24T13:22:18;87881.16;;;18.56;53.33
8047;BME280;67150;42.516;23.358;2023-04-24T13:24:45;87896.66;;;18.54;53.22
8047;BME280;67150;42.516;23.358;2023-04-24T13:27:15;87891.41;;;18.47;53.27